sensor_id;sensor_type;location;lat;lon;timestamp;P1;durP1;ratioP1;P2;durP2;ratioP2
1509;SDS011;746;48.688;9.428;2023-02-11T00:00:23;46.83;;;27.87;;
1509;SDS011;746;48.688;9.428;2023-02-11T00:02:44;43.27;;;26.93;;
1509;SDS011;746;48.688;9.428;2023-02-11T00:05:08;46.40;;;28.13;;
1509;SDS011;746;48.688;9.428;2023-02-11T00:07:30;43.53;;;28.13;;
1509;SDS011;746;48.688;9.428;2023-02-11T00:09:51;45.60;;;28.07;;
1509;SDS011;746;48.688;9.428;2023-02-11T00:12:13;43.97;;;27.57;;
1509;SDS011;746;48.688;9.428;2023-02-11T00:14:34;41.20;;;27.80;;
1509;SDS011;746;48.688;9.428;2023-02-11T00:16:55;42.80;;;27.83;;
1509;SDS011;746;48.688;9.428;2023-02-11T00:19:16;42.00;;;27.73;;
1509;SDS011;746;48.688;9.428;2023-02-11T00:21:39;43.57;;;27.73;;
1509;SDS011;746;48.688;9.428;2023-02-11T00:24:00;46.70;;;28.17;;
1509;SDS011;746;48.688;9.428;2023-02-11T00:26:22;49.80;;;28.93;;
1509;SDS011;746;48.688;9.428;2023-02-11T00:28:43;41.67;;;27.60;;
1509;SDS011;746;48.688;9.428;2023-02-11T00:31:04;48.57;;;28.10;;
1509;SDS011;746;48.688;9.428;2023-02-11T00:33:26;45.23;;;28.57;;
1509;SDS011;746;48.688;9.428;2023-02-11T00:35:47;49.70;;;29.87;;
1509;SDS011;746;48.688;9.428;2023-02-11T00:38:10;39.67;;;27.27;;
1509;SDS011;746;48.688;9.428;2023-02-11T00:40:31;44.33;;;28.23;;
1509;SDS011;746;48.688;9.428;2023-02-11T00:42:52;44.20;;;27.23;;
1509;SDS011;746;48.688;9.428;2023-02-11T00:45:14;43.93;;;27.77;;
1509;SDS011;746;48.688;9.428;2023-02-11T00:47:35;46.27;;;27.90;;
1509;SDS011;746;48.688;9.428;2023-02-11T00:49:56;45.80;;;27.10;;
1509;SDS011;746;48.688;9.428;2023-02-11T00:52:19;46.27;;;28.40;;
1509;SDS011;746;48.688;9.428;2023-02-11T00:54:42;46.10;;;29.20;;
1509;SDS011;746;48.688;9.428;2023-02-11T00:57:03;42.70;;;27.20;;
1509;SDS011;746;48.688;9.428;2023-02-11T00:59:24;46.70;;;27.63;;
1509;SDS011;746;48.688;9.428;2023-02-11T01:01:46;42.50;;;27.70;;
1509;SDS011;746;48.688;9.428;2023-02-11T01:04:07;42.97;;;27.33;;
1509;SDS011;746;48.688;9.428;2023-02-11T01:06:28;48.70;;;30.27;;
1509;SDS011;746;48.688;9.428;2023-02-11T01:08:49;46.90;;;29.63;;
1509;SDS011;746;48.688;9.428;2023-02-11T01:11:13;43.67;;;27.90;;
1509;SDS011;746;48.688;9.428;2023-02-11T01:13:35;43.17;;;27.53;;
1509;SDS011;746;48.688;9.428;2023-02-11T01:15:57;47.10;;;28.27;;
1509;SDS011;746;48.688;9.428;2023-02-11T01:18:19;42.47;;;26.10;;
1509;SDS011;746;48.688;9.428;2023-02-11T01:20:40;47.67;;;27.57;;
1509;SDS011;746;48.688;9.428;2023-02-11T01:23:02;43.93;;;27.27;;
1509;SDS011;746;48.688;9.428;2023-02-11T01:25:23;42.17;;;28.07;;
1509;SDS011;746;48.688;9.428;2023-02-11T01:27:46;44.70;;;27.47;;
1509;SDS011;746;48.688;9.428;2023-02-11T01:30:08;45.73;;;29.40;;
1509;SDS011;746;48.688;9.428;2023-02-11T01:32:30;43.60;;;28.07;;
1509;SDS011;746;48.688;9.428;2023-02-11T01:34:51;41.57;;;26.90;;
1509;SDS011;746;48.688;9.428;2023-02-11T01:37:12;42.50;;;27.57;;
1509;SDS011;746;48.688;9.428;2023-02-11T01:39:34;43.10;;;26.97;;
1509;SDS011;746;48.688;9.428;2023-02-11T01:41:55;44.10;;;27.90;;
1509;SDS011;746;48.688;9.428;2023-02-11T01:44:22;42.17;;;27.60;;
1509;SDS011;746;48.688;9.428;2023-02-11T01:46:43;44.67;;;27.73;;
1509;SDS011;746;48.688;9.428;2023-02-11T01:49:05;48.27;;;29.37;;
1509;SDS011;746;48.688;9.428;2023-02-11T01:51:28;48.50;;;28.53;;
1509;SDS011;746;48.688;9.428;2023-02-11T01:53:51;42.60;;;27.00;;
1509;SDS011;746;48.688;9.428;2023-02-11T01:56:30;43.10;;;27.67;;
1509;SDS011;746;48.688;9.428;2023-02-11T01:59:12;47.10;;;28.57;;
1509;SDS011;746;48.688;9.428;2023-02-11T02:01:36;47.37;;;28.53;;
1509;SDS011;746;48.688;9.428;2023-02-11T02:03:58;45.00;;;27.90;;
1509;SDS011;746;48.688;9.428;2023-02-11T02:06:21;43.67;;;27.47;;
1509;SDS011;746;48.688;9.428;2023-02-11T02:08:48;44.00;;;28.30;;
1509;SDS011;746;48.688;9.428;2023-02-11T02:11:10;43.77;;;27.30;;
1509;SDS011;746;48.688;9.428;2023-02-11T02:13:32;49.33;;;28.40;;
1509;SDS011;746;48.688;9.428;2023-02-11T02:15:54;48.67;;;27.63;;
1509;SDS011;746;48.688;9.428;2023-02-11T02:18:21;49.00;;;28.93;;
1509;SDS011;746;48.688;9.428;2023-02-11T02:23:34;45.33;;;28.37;;
1509;SDS011;746;48.688;9.428;2023-02-11T02:26:11;40.30;;;27.07;;
1509;SDS011;746;48.688;9.428;2023-02-11T02:28:49;47.80;;;28.23;;
1509;SDS011;746;48.688;9.428;2023-02-11T02:31:21;42.93;;;27.97;;
1509;SDS011;746;48.688;9.428;2023-02-11T02:33:50;46.53;;;28.27;;
1509;SDS011;746;48.688;9.428;2023-02-11T02:36:14;41.50;;;27.47;;
1509;SDS011;746;48.688;9.428;2023-02-11T02:38:36;39.93;;;27.30;;
1509;SDS011;746;48.688;9.428;2023-02-11T02:40:58;42.07;;;27.57;;
1509;SDS011;746;48.688;9.428;2023-02-11T02:43:21;44.57;;;27.37;;
1509;SDS011;746;48.688;9.428;2023-02-11T02:45:43;42.53;;;26.80;;
1509;SDS011;746;48.688;9.428;2023-02-11T02:48:05;43.73;;;27.50;;
1509;SDS011;746;48.688;9.428;2023-02-11T02:50:29;43.23;;;26.47;;
1509;SDS011;746;48.688;9.428;2023-02-11T02:52:53;41.60;;;27.50;;
1509;SDS011;746;48.688;9.428;2023-02-11T02:55:19;42.40;;;27.43;;
1509;SDS011;746;48.688;9.428;2023-02-11T02:57:47;41.63;;;26.90;;
1509;SDS011;746;48.688;9.428;2023-02-11T03:00:16;50.87;;;28.93;;
1509;SDS011;746;48.688;9.428;2023-02-11T03:02:40;43.37;;;27.23;;
1509;SDS011;746;48.688;9.428;2023-02-11T03:05:07;43.13;;;26.20;;
1509;SDS011;746;48.688;9.428;2023-02-11T03:07:34;45.20;;;27.60;;
1509;SDS011;746;48.688;9.428;2023-02-11T03:09:58;43.10;;;26.07;;
1509;SDS011;746;48.688;9.428;2023-02-11T03:12:22;46.47;;;27.50;;
1509;SDS011;746;48.688;9.428;2023-02-11T03:14:44;44.07;;;27.87;;
1509;SDS011;746;48.688;9.428;2023-02-11T03:17:06;44.07;;;28.10;;
1509;SDS011;746;48.688;9.428;2023-02-11T03:19:28;48.27;;;28.83;;
1509;SDS011;746;48.688;9.428;2023-02-11T03:21:50;43.73;;;27.53;;
1509;SDS011;746;48.688;9.428;2023-02-11T03:24:14;43.03;;;26.97;;
1509;SDS011;746;48.688;9.428;2023-02-11T03:26:37;44.13;;;27.60;;
1509;SDS011;746;48.688;9.428;2023-02-11T03:29:01;41.77;;;28.07;;
1509;SDS011;746;48.688;9.428;2023-02-11T03:31:26;45.50;;;27.93;;
1509;SDS011;746;48.688;9.428;2023-02-11T03:33:51;46.73;;;27.67;;
1509;SDS011;746;48.688;9.428;2023-02-11T03:36:16;44.80;;;26.20;;
1509;SDS011;746;48.688;9.428;2023-02-11T03:38:40;47.20;;;28.73;;
1509;SDS011;746;48.688;9.428;2023-02-11T03:41:05;43.80;;;27.50;;
1509;SDS011;746;48.688;9.428;2023-02-11T03:43:29;46.53;;;27.90;;
1509;SDS011;746;48.688;9.428;2023-02-11T03:45:51;45.30;;;27.13;;
1509;SDS011;746;48.688;9.428;2023-02-11T03:48:15;44.43;;;27.23;;
1509;SDS011;746;48.688;9.428;2023-02-11T03:50:37;42.50;;;27.03;;
1509;SDS011;746;48.688;9.428;2023-02-11T03:52:59;42.60;;;26.53;;
1509;SDS011;746;48.688;9.428;2023-02-11T03:55:21;41.00;;;27.83;;
1509;SDS011;746;48.688;9.428;2023-02-11T03:57:46;44.60;;;26.83;;
1509;SDS011;746;48.688;9.428;2023-02-11T04:00:07;42.00;;;26.53;;
1509;SDS011;746;48.688;9.428;2023-02-11T04:02:30;37.53;;;25.47;;
1509;SDS011;746;48.688;9.428;2023-02-11T04:04:53;41.47;;;27.03;;
1509;SDS011;746;48.688;9.428;2023-02-11T04:07:14;43.60;;;28.37;;
1509;SDS011;746;48.688;9.428;2023-02-11T04:09:35;45.87;;;27.40;;
1509;SDS011;746;48.688;9.428;2023-02-11T04:11:57;40.80;;;27.27;;
1509;SDS011;746;48.688;9.428;2023-02-11T04:14:19;38.57;;;26.63;;
1509;SDS011;746;48.688;9.428;2023-02-11T04:16:41;44.57;;;26.83;;
1509;SDS011;746;48.688;9.428;2023-02-11T04:19:02;43.77;;;28.07;;
1509;SDS011;746;48.688;9.428;2023-02-11T04:21:23;41.40;;;27.70;;
1509;SDS011;746;48.688;9.428;2023-02-11T04:23:45;39.00;;;27.07;;
1509;SDS011;746;48.688;9.428;2023-02-11T04:26:06;46.57;;;27.20;;
1509;SDS011;746;48.688;9.428;2023-02-11T04:28:27;40.63;;;26.43;;
1509;SDS011;746;48.688;9.428;2023-02-11T04:30:50;38.63;;;25.90;;
1509;SDS011;746;48.688;9.428;2023-02-11T04:33:11;44.87;;;28.00;;
1509;SDS011;746;48.688;9.428;2023-02-11T04:35:32;41.17;;;28.20;;
1509;SDS011;746;48.688;9.428;2023-02-11T04:37:53;43.50;;;28.03;;
1509;SDS011;746;48.688;9.428;2023-02-11T04:40:14;45.57;;;28.73;;
1509;SDS011;746;48.688;9.428;2023-02-11T04:42:35;43.00;;;28.53;;
1509;SDS011;746;48.688;9.428;2023-02-11T04:44:57;42.87;;;28.07;;
1509;SDS011;746;48.688;9.428;2023-02-11T04:47:19;43.03;;;27.93;;
1509;SDS011;746;48.688;9.428;2023-02-11T04:49:41;48.53;;;30.20;;
1509;SDS011;746;48.688;9.428;2023-02-11T04:52:02;44.27;;;29.13;;
1509;SDS011;746;48.688;9.428;2023-02-11T04:54:24;40.67;;;26.13;;
1509;SDS011;746;48.688;9.428;2023-02-11T04:56:45;43.20;;;27.53;;
1509;SDS011;746;48.688;9.428;2023-02-11T04:59:06;44.53;;;28.77;;
1509;SDS011;746;48.688;9.428;2023-02-11T05:01:28;44.67;;;28.00;;
1509;SDS011;746;48.688;9.428;2023-02-11T05:03:50;42.60;;;27.63;;
1509;SDS011;746;48.688;9.428;2023-02-11T05:06:12;39.13;;;26.40;;
1509;SDS011;746;48.688;9.428;2023-02-11T05:08:33;42.70;;;27.27;;
1509;SDS011;746;48.688;9.428;2023-02-11T05:10:54;45.23;;;27.63;;
1509;SDS011;746;48.688;9.428;2023-02-11T05:13:15;45.40;;;28.10;;
1509;SDS011;746;48.688;9.428;2023-02-11T05:15:36;45.57;;;28.57;;
1509;SDS011;746;48.688;9.428;2023-02-11T05:17:58;41.73;;;27.87;;
1509;SDS011;746;48.688;9.428;2023-02-11T05:20:21;42.63;;;28.37;;
1509;SDS011;746;48.688;9.428;2023-02-11T05:22:42;40.43;;;28.67;;
1509;SDS011;746;48.688;9.428;2023-02-11T05:25:03;41.87;;;28.60;;
1509;SDS011;746;48.688;9.428;2023-02-11T05:27:24;44.70;;;29.17;;
1509;SDS011;746;48.688;9.428;2023-02-11T05:29:46;37.77;;;27.07;;
1509;SDS011;746;48.688;9.428;2023-02-11T05:32:07;41.10;;;28.47;;
1509;SDS011;746;48.688;9.428;2023-02-11T05:34:29;43.13;;;27.77;;
1509;SDS011;746;48.688;9.428;2023-02-11T05:36:51;39.77;;;26.97;;
1509;SDS011;746;48.688;9.428;2023-02-11T05:39:13;43.50;;;28.37;;
1509;SDS011;746;48.688;9.428;2023-02-11T05:41:34;43.17;;;29.47;;
1509;SDS011;746;48.688;9.428;2023-02-11T05:43:56;43.90;;;28.63;;
1509;SDS011;746;48.688;9.428;2023-02-11T05:46:18;43.67;;;28.60;;
1509;SDS011;746;48.688;9.428;2023-02-11T05:48:39;38.27;;;27.23;;
1509;SDS011;746;48.688;9.428;2023-02-11T05:51:00;42.50;;;28.87;;
1509;SDS011;746;48.688;9.428;2023-02-11T05:53:23;43.40;;;28.63;;
1509;SDS011;746;48.688;9.428;2023-02-11T05:55:44;43.90;;;28.70;;
1509;SDS011;746;48.688;9.428;2023-02-11T05:58:06;41.70;;;27.87;;
1509;SDS011;746;48.688;9.428;2023-02-11T06:00:27;44.23;;;28.97;;
1509;SDS011;746;48.688;9.428;2023-02-11T06:02:48;40.50;;;26.57;;
1509;SDS011;746;48.688;9.428;2023-02-11T06:05:10;44.40;;;28.23;;
1509;SDS011;746;48.688;9.428;2023-02-11T06:07:31;40.93;;;27.37;;
1509;SDS011;746;48.688;9.428;2023-02-11T06:09:54;41.43;;;28.47;;
1509;SDS011;746;48.688;9.428;2023-02-11T06:12:15;43.87;;;28.80;;
1509;SDS011;746;48.688;9.428;2023-02-11T06:14:36;40.50;;;29.13;;
1509;SDS011;746;48.688;9.428;2023-02-11T06:16:58;43.10;;;29.60;;
1509;SDS011;746;48.688;9.428;2023-02-11T06:19:19;47.60;;;31.00;;
1509;SDS011;746;48.688;9.428;2023-02-11T06:21:40;59.23;;;35.27;;
1509;SDS011;746;48.688;9.428;2023-02-11T06:24:04;55.60;;;34.43;;
1509;SDS011;746;48.688;9.428;2023-02-11T06:26:26;46.10;;;30.17;;
1509;SDS011;746;48.688;9.428;2023-02-11T06:28:48;54.37;;;33.90;;
1509;SDS011;746;48.688;9.428;2023-02-11T06:31:09;73.60;;;46.83;;
1509;SDS011;746;48.688;9.428;2023-02-11T06:33:30;53.47;;;35.23;;
1509;SDS011;746;48.688;9.428;2023-02-11T06:35:52;53.77;;;35.73;;
1509;SDS011;746;48.688;9.428;2023-02-11T06:38:13;50.43;;;34.33;;
1509;SDS011;746;48.688;9.428;2023-02-11T06:40:34;50.00;;;34.20;;
1509;SDS011;746;48.688;9.428;2023-02-11T06:42:57;47.33;;;33.07;;
1509;SDS011;746;48.688;9.428;2023-02-11T06:45:18;48.33;;;32.20;;
1509;SDS011;746;48.688;9.428;2023-02-11T06:47:40;47.17;;;31.10;;
1509;SDS011;746;48.688;9.428;2023-02-11T06:50:01;46.63;;;30.90;;
1509;SDS011;746;48.688;9.428;2023-02-11T06:52:23;41.97;;;29.50;;
1509;SDS011;746;48.688;9.428;2023-02-11T06:54:44;44.90;;;30.20;;
1509;SDS011;746;48.688;9.428;2023-02-11T06:57:05;41.60;;;28.53;;
1509;SDS011;746;48.688;9.428;2023-02-11T06:59:28;45.93;;;29.87;;
1509;SDS011;746;48.688;9.428;2023-02-11T07:01:49;42.50;;;29.20;;
1509;SDS011;746;48.688;9.428;2023-02-11T07:04:10;40.03;;;27.93;;
1509;SDS011;746;48.688;9.428;2023-02-11T07:06:33;40.23;;;27.27;;
1509;SDS011;746;48.688;9.428;2023-02-11T07:08:56;44.47;;;29.80;;
1509;SDS011;746;48.688;9.428;2023-02-11T07:11:18;43.07;;;29.73;;
1509;SDS011;746;48.688;9.428;2023-02-11T07:13:39;43.70;;;28.73;;
1509;SDS011;746;48.688;9.428;2023-02-11T07:16:03;42.23;;;29.73;;
1509;SDS011;746;48.688;9.428;2023-02-11T07:18:25;43.70;;;29.30;;
1509;SDS011;746;48.688;9.428;2023-02-11T07:20:46;41.00;;;27.70;;
1509;SDS011;746;48.688;9.428;2023-02-11T07:23:07;42.13;;;28.77;;
1509;SDS011;746;48.688;9.428;2023-02-11T07:25:28;38.87;;;29.03;;
1509;SDS011;746;48.688;9.428;2023-02-11T07:27:50;38.87;;;28.50;;
1509;SDS011;746;48.688;9.428;2023-02-11T07:30:11;44.07;;;29.37;;
1509;SDS011;746;48.688;9.428;2023-02-11T07:32:34;42.33;;;29.17;;
1509;SDS011;746;48.688;9.428;2023-02-11T07:34:55;43.60;;;29.90;;
1509;SDS011;746;48.688;9.428;2023-02-11T07:37:17;42.93;;;29.70;;
1509;SDS011;746;48.688;9.428;2023-02-11T07:39:38;41.70;;;28.47;;
1509;SDS011;746;48.688;9.428;2023-02-11T07:41:59;42.93;;;29.33;;
1509;SDS011;746;48.688;9.428;2023-02-11T07:44:20;40.23;;;29.40;;
1509;SDS011;746;48.688;9.428;2023-02-11T07:46:42;42.83;;;29.10;;
1509;SDS011;746;48.688;9.428;2023-02-11T07:49:05;38.47;;;28.23;;
1509;SDS011;746;48.688;9.428;2023-02-11T07:51:27;49.47;;;32.40;;
1509;SDS011;746;48.688;9.428;2023-02-11T07:53:48;40.53;;;28.80;;
1509;SDS011;746;48.688;9.428;2023-02-11T07:56:11;41.63;;;28.73;;
1509;SDS011;746;48.688;9.428;2023-02-11T07:58:33;40.80;;;28.63;;
1509;SDS011;746;48.688;9.428;2023-02-11T08:00:54;38.70;;;28.53;;
1509;SDS011;746;48.688;9.428;2023-02-11T08:03:15;48.57;;;32.97;;
1509;SDS011;746;48.688;9.428;2023-02-11T08:05:38;41.00;;;29.17;;
1509;SDS011;746;48.688;9.428;2023-02-11T08:07:59;43.07;;;31.50;;
1509;SDS011;746;48.688;9.428;2023-02-11T08:10:20;45.73;;;31.67;;
1509;SDS011;746;48.688;9.428;2023-02-11T08:12:41;43.60;;;31.90;;
1509;SDS011;746;48.688;9.428;2023-02-11T08:15:03;39.33;;;29.17;;
1509;SDS011;746;48.688;9.428;2023-02-11T08:17:24;39.97;;;29.13;;
1509;SDS011;746;48.688;9.428;2023-02-11T08:19:45;36.63;;;27.23;;
1509;SDS011;746;48.688;9.428;2023-02-11T08:22:08;38.77;;;29.00;;
1509;SDS011;746;48.688;9.428;2023-02-11T08:24:29;39.67;;;28.93;;
1509;SDS011;746;48.688;9.428;2023-02-11T08:26:50;40.10;;;28.60;;
1509;SDS011;746;48.688;9.428;2023-02-11T08:29:12;35.23;;;26.87;;
1509;SDS011;746;48.688;9.428;2023-02-11T08:31:35;36.23;;;27.13;;
1509;SDS011;746;48.688;9.428;2023-02-11T08:33:57;38.50;;;28.43;;
1509;SDS011;746;48.688;9.428;2023-02-11T08:36:20;38.07;;;28.20;;
1509;SDS011;746;48.688;9.428;2023-02-11T08:38:43;35.30;;;26.67;;
1509;SDS011;746;48.688;9.428;2023-02-11T08:41:04;33.47;;;26.70;;
1509;SDS011;746;48.688;9.428;2023-02-11T08:43:26;36.13;;;27.27;;
1509;SDS011;746;48.688;9.428;2023-02-11T08:45:47;36.23;;;26.67;;
1509;SDS011;746;48.688;9.428;2023-02-11T08:48:09;35.60;;;26.73;;
1509;SDS011;746;48.688;9.428;2023-02-11T08:50:31;35.23;;;26.70;;
1509;SDS011;746;48.688;9.428;2023-02-11T08:52:52;34.27;;;26.23;;
1509;SDS011;746;48.688;9.428;2023-02-11T08:55:15;35.43;;;25.87;;
1509;SDS011;746;48.688;9.428;2023-02-11T08:57:36;36.50;;;27.53;;
1509;SDS011;746;48.688;9.428;2023-02-11T08:59:57;36.37;;;27.57;;
1509;SDS011;746;48.688;9.428;2023-02-11T09:02:19;36.97;;;27.47;;
1509;SDS011;746;48.688;9.428;2023-02-11T09:04:40;36.03;;;27.17;;
1509;SDS011;746;48.688;9.428;2023-02-11T09:07:01;36.70;;;27.27;;
1509;SDS011;746;48.688;9.428;2023-02-11T09:09:23;38.53;;;28.93;;
1509;SDS011;746;48.688;9.428;2023-02-11T09:11:46;39.43;;;28.90;;
1509;SDS011;746;48.688;9.428;2023-02-11T09:14:10;39.33;;;28.47;;
1509;SDS011;746;48.688;9.428;2023-02-11T09:16:35;40.20;;;28.83;;
1509;SDS011;746;48.688;9.428;2023-02-11T09:18:57;37.50;;;28.50;;
1509;SDS011;746;48.688;9.428;2023-02-11T09:21:19;39.43;;;29.17;;
1509;SDS011;746;48.688;9.428;2023-02-11T09:23:41;37.07;;;28.07;;
1509;SDS011;746;48.688;9.428;2023-02-11T09:26:04;41.23;;;27.37;;
1509;SDS011;746;48.688;9.428;2023-02-11T09:28:29;34.17;;;26.37;;
1509;SDS011;746;48.688;9.428;2023-02-11T09:30:50;38.67;;;28.07;;
1509;SDS011;746;48.688;9.428;2023-02-11T09:33:12;42.03;;;28.73;;
1509;SDS011;746;48.688;9.428;2023-02-11T09:35:33;38.27;;;28.97;;
1509;SDS011;746;48.688;9.428;2023-02-11T09:37:55;39.63;;;28.07;;
1509;SDS011;746;48.688;9.428;2023-02-11T09:40:16;34.60;;;25.93;;
1509;SDS011;746;48.688;9.428;2023-02-11T09:42:40;34.07;;;24.40;;
1509;SDS011;746;48.688;9.428;2023-02-11T09:45:04;34.67;;;26.17;;
1509;SDS011;746;48.688;9.428;2023-02-11T09:47:30;30.83;;;23.90;;
1509;SDS011;746;48.688;9.428;2023-02-11T09:49:53;32.87;;;25.07;;
1509;SDS011;746;48.688;9.428;2023-02-11T09:52:17;32.33;;;24.23;;
1509;SDS011;746;48.688;9.428;2023-02-11T09:54:43;33.30;;;25.07;;
1509;SDS011;746;48.688;9.428;2023-02-11T09:57:09;32.07;;;24.03;;
1509;SDS011;746;48.688;9.428;2023-02-11T09:59:47;31.47;;;24.77;;
1509;SDS011;746;48.688;9.428;2023-02-11T10:02:12;33.73;;;26.10;;
1509;SDS011;746;48.688;9.428;2023-02-11T10:04:42;34.93;;;25.77;;
1509;SDS011;746;48.688;9.428;2023-02-11T10:07:06;34.27;;;24.87;;
1509;SDS011;746;48.688;9.428;2023-02-11T10:09:36;62.03;;;36.27;;
1509;SDS011;746;48.688;9.428;2023-02-11T10:12:02;32.27;;;24.53;;
1509;SDS011;746;48.688;9.428;2023-02-11T10:14:47;35.27;;;26.67;;
1509;SDS011;746;48.688;9.428;2023-02-11T10:17:14;31.20;;;24.63;;
1509;SDS011;746;48.688;9.428;2023-02-11T10:19:41;31.83;;;23.80;;
1509;SDS011;746;48.688;9.428;2023-02-11T10:22:08;31.43;;;23.50;;
1509;SDS011;746;48.688;9.428;2023-02-11T10:24:30;34.33;;;24.73;;
1509;SDS011;746;48.688;9.428;2023-02-11T10:26:51;32.87;;;24.27;;
1509;SDS011;746;48.688;9.428;2023-02-11T10:29:15;31.43;;;23.97;;
1509;SDS011;746;48.688;9.428;2023-02-11T10:31:39;34.00;;;25.87;;
1509;SDS011;746;48.688;9.428;2023-02-11T10:34:04;32.30;;;25.13;;
1509;SDS011;746;48.688;9.428;2023-02-11T10:36:26;41.83;;;29.40;;
1509;SDS011;746;48.688;9.428;2023-02-11T10:38:48;35.77;;;25.87;;
1509;SDS011;746;48.688;9.428;2023-02-11T10:41:09;33.40;;;23.60;;
1509;SDS011;746;48.688;9.428;2023-02-11T10:43:33;27.87;;;22.63;;
1509;SDS011;746;48.688;9.428;2023-02-11T10:45:55;27.37;;;21.77;;
1509;SDS011;746;48.688;9.428;2023-02-11T10:48:36;28.13;;;23.30;;
1509;SDS011;746;48.688;9.428;2023-02-11T10:51:07;29.40;;;22.17;;
1509;SDS011;746;48.688;9.428;2023-02-11T10:53:28;29.60;;;22.00;;
1509;SDS011;746;48.688;9.428;2023-02-11T10:55:50;28.23;;;21.73;;
1509;SDS011;746;48.688;9.428;2023-02-11T10:58:17;27.10;;;21.73;;
1509;SDS011;746;48.688;9.428;2023-02-11T11:00:41;29.23;;;21.80;;
1509;SDS011;746;48.688;9.428;2023-02-11T11:03:03;26.43;;;21.13;;
1509;SDS011;746;48.688;9.428;2023-02-11T11:05:27;27.73;;;20.83;;
1509;SDS011;746;48.688;9.428;2023-02-11T11:07:54;29.43;;;21.10;;
1509;SDS011;746;48.688;9.428;2023-02-11T11:10:24;27.67;;;22.23;;
1509;SDS011;746;48.688;9.428;2023-02-11T11:12:46;27.83;;;20.60;;
1509;SDS011;746;48.688;9.428;2023-02-11T11:15:17;23.33;;;18.90;;
1509;SDS011;746;48.688;9.428;2023-02-11T11:17:40;24.03;;;18.83;;
1509;SDS011;746;48.688;9.428;2023-02-11T11:20:15;29.17;;;20.57;;
1509;SDS011;746;48.688;9.428;2023-02-11T11:22:38;24.70;;;19.60;;
1509;SDS011;746;48.688;9.428;2023-02-11T11:25:01;22.13;;;17.90;;
1509;SDS011;746;48.688;9.428;2023-02-11T11:27:23;21.83;;;18.40;;
1509;SDS011;746;48.688;9.428;2023-02-11T11:29:45;22.23;;;17.73;;
1509;SDS011;746;48.688;9.428;2023-02-11T11:32:10;24.90;;;19.23;;
1509;SDS011;746;48.688;9.428;2023-02-11T11:34:35;46.63;;;28.97;;
1509;SDS011;746;48.688;9.428;2023-02-11T11:36:57;23.97;;;17.77;;
1509;SDS011;746;48.688;9.428;2023-02-11T11:39:20;22.47;;;17.07;;
1509;SDS011;746;48.688;9.428;2023-02-11T11:41:49;20.83;;;16.63;;
1509;SDS011;746;48.688;9.428;2023-02-11T11:44:16;20.23;;;15.90;;
1509;SDS011;746;48.688;9.428;2023-02-11T11:46:41;20.47;;;16.40;;
1509;SDS011;746;48.688;9.428;2023-02-11T11:49:09;19.60;;;16.03;;
1509;SDS011;746;48.688;9.428;2023-02-11T11:51:32;19.70;;;15.47;;
1509;SDS011;746;48.688;9.428;2023-02-11T11:53:55;21.23;;;14.83;;
1509;SDS011;746;48.688;9.428;2023-02-11T11:56:18;19.50;;;15.27;;
1509;SDS011;746;48.688;9.428;2023-02-11T11:58:43;21.50;;;16.17;;
1509;SDS011;746;48.688;9.428;2023-02-11T12:01:07;20.90;;;17.10;;
1509;SDS011;746;48.688;9.428;2023-02-11T12:03:39;20.70;;;17.50;;
1509;SDS011;746;48.688;9.428;2023-02-11T12:06:07;19.50;;;16.10;;
1509;SDS011;746;48.688;9.428;2023-02-11T12:08:35;20.63;;;16.20;;
1509;SDS011;746;48.688;9.428;2023-02-11T12:11:01;21.50;;;16.13;;
1509;SDS011;746;48.688;9.428;2023-02-11T12:13:27;19.00;;;16.03;;
1509;SDS011;746;48.688;9.428;2023-02-11T12:15:56;20.13;;;16.40;;
1509;SDS011;746;48.688;9.428;2023-02-11T12:18:29;19.07;;;15.97;;
1509;SDS011;746;48.688;9.428;2023-02-11T12:21:08;16.77;;;14.07;;
1509;SDS011;746;48.688;9.428;2023-02-11T12:23:36;16.13;;;13.53;;
1509;SDS011;746;48.688;9.428;2023-02-11T12:26:00;14.37;;;12.83;;
1509;SDS011;746;48.688;9.428;2023-02-11T12:28:26;12.93;;;11.43;;
1509;SDS011;746;48.688;9.428;2023-02-11T12:31:09;15.43;;;12.97;;
1509;SDS011;746;48.688;9.428;2023-02-11T12:33:36;13.67;;;11.80;;
1509;SDS011;746;48.688;9.428;2023-02-11T12:36:05;17.67;;;13.37;;
1509;SDS011;746;48.688;9.428;2023-02-11T12:38:36;16.47;;;13.30;;
1509;SDS011;746;48.688;9.428;2023-02-11T12:41:03;19.63;;;14.17;;
1509;SDS011;746;48.688;9.428;2023-02-11T12:43:30;19.20;;;14.77;;
1509;SDS011;746;48.688;9.428;2023-02-11T12:45:59;15.30;;;12.80;;
1509;SDS011;746;48.688;9.428;2023-02-11T12:51:00;15.17;;;11.77;;
1509;SDS011;746;48.688;9.428;2023-02-11T12:53:29;16.03;;;11.73;;
1509;SDS011;746;48.688;9.428;2023-02-11T12:55:55;14.07;;;12.50;;
1509;SDS011;746;48.688;9.428;2023-02-11T12:58:18;13.23;;;11.87;;
1509;SDS011;746;48.688;9.428;2023-02-11T13:00:48;14.40;;;11.57;;
1509;SDS011;746;48.688;9.428;2023-02-11T13:03:11;11.63;;;10.10;;
1509;SDS011;746;48.688;9.428;2023-02-11T13:05:37;15.30;;;13.13;;
1509;SDS011;746;48.688;9.428;2023-02-11T13:08:03;12.53;;;11.20;;
1509;SDS011;746;48.688;9.428;2023-02-11T13:10:29;14.07;;;12.27;;
1509;SDS011;746;48.688;9.428;2023-02-11T13:12:52;13.70;;;11.73;;
1509;SDS011;746;48.688;9.428;2023-02-11T13:15:32;30.00;;;20.07;;
1509;SDS011;746;48.688;9.428;2023-02-11T13:17:55;17.63;;;14.07;;
1509;SDS011;746;48.688;9.428;2023-02-11T13:20:25;25.17;;;17.77;;
1509;SDS011;746;48.688;9.428;2023-02-11T13:22:51;21.27;;;16.53;;
1509;SDS011;746;48.688;9.428;2023-02-11T13:25:18;15.40;;;13.60;;
1509;SDS011;746;48.688;9.428;2023-02-11T13:27:42;19.87;;;14.67;;
1509;SDS011;746;48.688;9.428;2023-02-11T13:30:12;16.07;;;13.23;;
1509;SDS011;746;48.688;9.428;2023-02-11T13:35:25;17.10;;;13.33;;
1509;SDS011;746;48.688;9.428;2023-02-11T13:37:48;18.50;;;15.10;;
1509;SDS011;746;48.688;9.428;2023-02-11T13:40:19;18.93;;;14.90;;
1509;SDS011;746;48.688;9.428;2023-02-11T13:42:47;17.93;;;15.37;;
1509;SDS011;746;48.688;9.428;2023-02-11T13:45:15;16.60;;;14.90;;
1509;SDS011;746;48.688;9.428;2023-02-11T13:47:37;14.93;;;13.20;;
1509;SDS011;746;48.688;9.428;2023-02-11T13:49:58;15.60;;;13.87;;
1509;SDS011;746;48.688;9.428;2023-02-11T13:52:22;16.13;;;13.03;;
1509;SDS011;746;48.688;9.428;2023-02-11T13:54:46;15.20;;;12.80;;
1509;SDS011;746;48.688;9.428;2023-02-11T14:00:00;14.17;;;12.67;;
1509;SDS011;746;48.688;9.428;2023-02-11T14:02:26;12.97;;;11.63;;
1509;SDS011;746;48.688;9.428;2023-02-11T14:05:18;12.80;;;11.40;;
1509;SDS011;746;48.688;9.428;2023-02-11T14:08:12;16.20;;;12.30;;
1509;SDS011;746;48.688;9.428;2023-02-11T14:10:51;13.40;;;12.00;;
1509;SDS011;746;48.688;9.428;2023-02-11T14:13:17;13.97;;;11.83;;
1509;SDS011;746;48.688;9.428;2023-02-11T14:15:44;16.83;;;11.70;;
1509;SDS011;746;48.688;9.428;2023-02-11T14:20:42;14.63;;;11.50;;
1509;SDS011;746;48.688;9.428;2023-02-11T14:23:04;11.93;;;10.30;;
1509;SDS011;746;48.688;9.428;2023-02-11T14:25:26;13.67;;;9.60;;
1509;SDS011;746;48.688;9.428;2023-02-11T14:27:47;11.43;;;9.40;;
1509;SDS011;746;48.688;9.428;2023-02-11T14:30:28;12.27;;;9.83;;
1509;SDS011;746;48.688;9.428;2023-02-11T14:32:59;11.33;;;10.00;;
1509;SDS011;746;48.688;9.428;2023-02-11T14:35:26;10.67;;;9.53;;
1509;SDS011;746;48.688;9.428;2023-02-11T14:37:51;10.10;;;9.10;;
1509;SDS011;746;48.688;9.428;2023-02-11T14:40:17;12.10;;;9.90;;
1509;SDS011;746;48.688;9.428;2023-02-11T14:42:41;14.73;;;10.73;;
1509;SDS011;746;48.688;9.428;2023-02-11T14:45:03;13.00;;;10.30;;
1509;SDS011;746;48.688;9.428;2023-02-11T14:47:27;12.27;;;9.97;;
1509;SDS011;746;48.688;9.428;2023-02-11T14:49:51;11.27;;;10.10;;
1509;SDS011;746;48.688;9.428;2023-02-11T14:52:15;10.83;;;9.33;;
1509;SDS011;746;48.688;9.428;2023-02-11T14:54:41;11.77;;;9.47;;